Time;durP1;ratioP1;P1;durP2;ratioP2;P2;SDS_P1;SDS_P2;PMS_P1;PMS_P2;Temp;Humidity;BMP_temperature;BMP_pressure;BME280_temperature;BME280_humidity;BME280_pressure;Samples;Min_cycle;Max_cycle;Signal;HPM_P1;HPM_P2
2022/03/31 00:00:39;;;;;;;3.28;3.08;;;;;;;6.28;61.02;99971.81;5012684;28;20026;-90
2022/03/31 00:03:19;;;;;;;3.80;3.25;;;;;;;6.29;61.10;99968.09;5013017;28;20041;-90
2022/03/31 00:05:48;;;;;;;4.00;3.60;;;;;;;6.30;60.50;99977.00;5012708;28;20040;-90
2022/03/31 00:08:20;;;;;;;4.18;3.78;;;;;;;6.34;60.38;99980.13;5015242;28;20552;-89
2022/03/31 00:10:55;;;;;;;3.65;3.35;;;;;;;6.31;59.34;99973.28;5017546;28;20057;-90
2022/03/31 00:13:35;;;;;;;3.30;3.10;;;;;;;6.31;60.78;99978.66;5016056;28;20038;-89
2022/03/31 00:16:02;;;;;;;3.20;2.90;;;;;;;6.26;61.05;99978.44;5016411;28;20172;-89
2022/03/31 00:18:31;;;;;;;3.83;3.42;;;;;;;6.22;60.76;99975.34;5016239;28;20034;-90
2022/03/31 00:20:57;;;;;;;3.83;3.50;;;;;;;6.26;60.85;99984.69;5015918;28;20026;-89
2022/03/31 00:23:22;;;;;;;3.72;3.42;;;;;;;6.33;59.81;99981.97;5016088;28;20124;-89
2022/03/31 00:25:55;;;;;;;3.70;3.40;;;;;;;6.34;60.45;99989.03;5016062;28;20036;-89
2022/03/31 00:28:21;;;;;;;4.20;3.80;;;;;;;6.37;60.46;99982.41;5015582;28;20044;-89
2022/03/31 00:30:49;;;;;;;4.20;3.80;;;;;;;6.37;60.67;99983.22;5015784;28;20021;-89
2022/03/31 00:33:14;;;;;;;3.90;3.60;;;;;;;6.40;60.36;99982.78;5016043;28;20036;-90
2022/03/31 00:35:43;;;;;;;4.05;3.70;;;;;;;6.41;60.88;99981.78;4999399;28;20038;-88
2022/03/31 00:38:10;;;;;;;3.70;3.40;;;;;;;6.45;60.82;99979.47;5015967;28;20038;-89
2022/03/31 00:40:35;;;;;;;4.03;3.63;;;;;;;6.43;60.36;99968.91;5015814;28;20030;-90
2022/03/31 00:43:01;;;;;;;4.32;3.92;;;;;;;6.42;60.60;99969.97;5015902;28;20132;-89
2022/03/31 00:45:34;;;;;;;4.68;4.18;;;;;;;6.43;59.71;99968.09;5015075;28;20021;-90
2022/03/31 00:48:03;;;;;;;4.35;3.88;;;;;;;6.41;60.51;99967.47;5015882;28;20037;-90
2022/03/31 00:50:40;;;;;;;4.93;4.47;;;;;;;6.41;59.77;99970.19;5015492;28;20026;-89
2022/03/31 00:53:06;;;;;;;5.30;4.80;;;;;;;6.41;60.35;99983.66;5015624;28;20040;-89
2022/03/31 00:55:32;;;;;;;6.07;5.07;;;;;;;6.41;60.73;99972.88;5015509;28;20445;-89
2022/03/31 00:58:00;;;;;;;5.88;5.28;;;;;;;6.39;60.54;99972.22;4999103;28;20068;-90
2022/03/31 01:00:29;;;;;;;5.70;5.07;;;;;;;6.38;60.96;99971.41;5015308;28;20037;-90
2022/03/31 01:02:55;;;;;;;5.68;4.75;;;;;;;6.38;61.04;99968.72;5015514;28;20128;-90
2022/03/31 01:05:21;;;;;;;5.43;4.70;;;;;;;6.38;60.79;99960.63;5015438;28;20061;-90
2022/03/31 01:07:46;;;;;;;5.85;5.25;;;;;;;6.38;61.08;99962.47;5015201;28;20493;-90
2022/03/31 01:10:13;;;;;;;6.28;5.20;;;;;;;6.36;61.17;99962.69;4998799;28;20056;-90
2022/03/31 01:12:39;;;;;;;6.43;5.72;;;;;;;6.37;60.77;99952.75;5015468;28;20064;-90
2022/03/31 01:15:15;;;;;;;5.97;5.30;;;;;;;6.37;61.06;99953.59;5014691;28;20474;-90
2022/03/31 01:17:43;;;;;;;6.82;5.95;;;;;;;6.36;61.17;99954.59;5015398;28;20053;-90
2022/03/31 01:20:14;;;;;;;8.20;6.07;;;;;;;6.34;61.54;99950.50;5014722;28;20498;-90
2022/03/31 01:22:39;;;;;;;6.65;5.75;;;;;;;6.30;61.73;99942.81;5015425;28;20034;-90
2022/03/31 01:25:10;;;;;;;6.53;5.55;;;;;;;6.29;61.67;99937.66;4998967;28;20045;-90
2022/03/31 01:27:40;;;;;;;5.90;5.10;;;;;;;6.31;61.36;99946.34;4998829;28;20128;-90
2022/03/31 01:30:13;;;;;;;6.72;5.65;;;;;;;6.30;61.64;99944.69;5014765;28;20033;-90
2022/03/31 01:32:39;;;;;;;5.97;5.18;;;;;;;6.27;62.08;99945.91;5014903;28;20071;-90
2022/03/31 01:35:07;;;;;;;5.45;4.95;;;;;;;6.30;61.72;99944.69;5014782;28;20368;-90
2022/03/31 01:37:33;;;;;;;5.97;5.40;;;;;;;6.30;61.54;99937.44;5014614;28;20061;-90
2022/03/31 01:39:59;;;;;;;6.32;5.65;;;;;;;6.27;61.88;99940.53;5015841;28;20045;-90
2022/03/31 01:42:27;;;;;;;8.90;6.32;;;;;;;6.26;62.54;99933.50;5014454;28;20030;-90
2022/03/31 01:44:53;;;;;;;6.72;5.80;;;;;;;6.19;62.50;99931.88;4997857;28;20078;-90
2022/03/31 01:47:19;;;;;;;6.72;6.03;;;;;;;6.20;62.25;99933.50;5015569;28;20061;-90
2022/03/31 01:49:45;;;;;;;6.90;6.20;;;;;;;6.13;62.98;99928.13;5015678;28;20034;-90
2022/03/31 01:52:10;;;;;;;7.28;6.57;;;;;;;6.12;62.75;99934.53;5014309;28;20113;-90
2022/03/31 01:54:39;;;;;;;7.18;6.07;;;;;;;6.10;63.21;99933.94;5013888;28;20046;-90
2022/03/31 01:57:05;;;;;;;6.97;6.15;;;;;;;6.10;63.90;99923.16;5015392;28;20032;-90
2022/03/31 01:59:35;;;;;;;7.82;6.75;;;;;;;6.06;64.58;99914.66;5014228;28;20026;-90
2022/03/31 02:02:01;;;;;;;8.80;7.20;;;;;;;6.07;63.87;99918.19;5014343;28;20030;-91
2022/03/31 02:04:29;;;;;;;7.40;6.40;;;;;;;5.99;64.31;99924.59;4998106;28;20037;-90
2022/03/31 02:06:58;;;;;;;8.27;7.13;;;;;;;5.96;63.75;99920.44;5014125;28;20144;-90
2022/03/31 02:09:28;;;;;;;9.23;8.02;;;;;;;5.94;64.35;99919.00;5013876;28;20045;-90
2022/03/31 02:11:54;;;;;;;10.13;7.78;;;;;;;5.92;63.90;99908.44;4998957;28;20453;-90
2022/03/31 02:14:22;;;;;;;10.02;8.23;;;;;;;5.88;64.25;99915.25;4997042;28;20046;-90
2022/03/31 02:16:50;;;;;;;10.07;8.20;;;;;;;5.86;63.96;99908.41;5015193;28;20036;-90
2022/03/31 02:19:18;;;;;;;10.38;9.13;;;;;;;5.76;65.44;99898.91;5014963;28;20030;-90
2022/03/31 02:21:46;;;;;;;10.18;8.70;;;;;;;5.72;65.83;99899.53;5013715;28;20045;-90
2022/03/31 02:24:12;;;;;;;10.75;8.40;;;;;;;5.64;67.16;99900.56;5014531;28;20117;-90
2022/03/31 02:26:38;;;;;;;11.65;9.40;;;;;;;5.59;66.48;99900.34;5013863;28;20040;-89
2022/03/31 02:31:53;;;;;;;10.35;8.73;;;;;;;5.59;66.75;99905.72;5014524;28;20037;-90
2022/03/31 02:34:24;;;;;;;9.93;8.38;;;;;;;5.55;65.98;99910.69;5013602;28;20486;-90
2022/03/31 02:36:52;;;;;;;10.32;8.00;;;;;;;5.53;67.62;99899.31;5013907;28;20038;-90
2022/03/31 02:39:21;;;;;;;9.35;8.15;;;;;;;5.62;66.01;99899.94;5013787;28;20048;-90
2022/03/31 02:41:47;;;;;;;9.73;8.63;;;;;;;5.56;66.96;99888.13;5013302;28;20037;-90
2022/03/31 02:44:12;;;;;;;8.35;7.50;;;;;;;5.55;67.84;99901.78;5012844;28;20398;-90
2022/03/31 02:46:38;;;;;;;10.10;8.48;;;;;;;5.48;68.04;99896.41;5013500;28;20029;-90
2022/03/31 02:49:04;;;;;;;9.52;7.03;;;;;;;5.51;67.25;99893.31;5014698;28;20125;-90
2022/03/31 02:51:30;;;;;;;7.45;6.70;;;;;;;5.35;69.14;99893.69;5013644;28;20029;-90
2022/03/31 02:56:45;;;;;;;8.32;7.10;;;;;;;5.29;70.77;99894.53;5014139;28;20108;-90
2022/03/31 02:59:10;;;;;;;7.15;6.10;;;;;;;5.23;71.07;99891.59;4997106;28;20398;-90
2022/03/31 03:01:36;;;;;;;7.75;7.03;;;;;;;5.23;70.65;99888.09;5013187;28;20041;-91
2022/03/31 03:04:08;;;;;;;7.90;7.10;;;;;;;5.08;71.71;99888.28;5014674;28;20029;-90
2022/03/31 03:06:36;;;;;;;9.98;6.35;;;;;;;5.04;72.04;99884.31;5013454;28;20036;-90
2022/03/31 03:09:05;;;;;;;6.75;5.90;;;;;;;5.03;71.42;99878.09;5013093;28;20513;-90
2022/03/31 03:11:31;;;;;;;7.93;6.80;;;;;;;5.07;72.63;99879.34;5013725;28;20061;-90
2022/03/31 03:14:04;;;;;;;6.00;5.43;;;;;;;5.00;72.71;99878.50;5012555;28;20049;-90
2022/03/31 03:16:30;;;;;;;5.88;5.35;;;;;;;4.95;72.30;99864.03;5013627;28;20034;-90
2022/03/31 03:18:58;;;;;;;5.18;4.70;;;;;;;4.94;71.38;99867.75;5013084;28;20040;-90
2022/03/31 03:21:26;;;;;;;5.30;4.80;;;;;;;4.91;71.64;99864.41;5013115;28;20025;-90
2022/03/31 03:23:54;;;;;;;5.03;4.53;;;;;;;4.78;72.57;99879.69;5013072;28;20030;-90
2022/03/31 03:26:23;;;;;;;4.82;4.20;;;;;;;4.67;72.61;99881.91;5012860;28;20100;-90
2022/03/31 03:28:51;;;;;;;4.25;3.95;;;;;;;4.66;72.06;99876.75;5012985;28;20030;-89
2022/03/31 03:31:17;;;;;;;4.10;3.80;;;;;;;4.56;73.11;99875.25;5013580;28;20030;-90
2022/03/31 03:33:42;;;;;;;3.95;3.63;;;;;;;4.51;73.38;99875.03;5013382;28;20176;-89
2022/03/31 03:36:11;;;;;;;4.03;3.72;;;;;;;4.65;71.47;99867.00;5012646;28;20030;-89
2022/03/31 03:38:37;;;;;;;3.50;3.30;;;;;;;4.49;71.19;99870.91;5012850;28;20080;-89
2022/03/31 03:41:05;;;;;;;3.25;3.00;;;;;;;4.44;72.17;99874.16;5012819;28;20108;-89
2022/03/31 03:43:33;;;;;;;3.08;2.88;;;;;;;4.33;73.42;99874.75;5017227;28;20022;-89
2022/03/31 03:45:59;;;;;;;3.22;2.80;;;;;;;4.17;72.92;99874.00;5016754;28;20376;-89
2022/03/31 03:48:25;;;;;;;2.70;2.50;;;;;;;4.02;73.13;99878.69;5016549;28;20093;-89
2022/03/31 03:50:55;;;;;;;3.30;3.00;;;;;;;3.94;73.38;99876.97;5016582;28;20049;-90
2022/03/31 03:53:21;;;;;;;2.70;2.50;;;;;;;3.81;72.81;99880.38;5016791;28;20026;-90
2022/03/31 03:55:49;;;;;;;2.60;2.40;;;;;;;3.80;72.80;99885.94;5016110;28;20037;-90
2022/03/31 03:58:22;;;;;;;2.40;2.28;;;;;;;3.86;73.67;99882.47;5017015;28;20030;-90
2022/03/31 04:00:50;;;;;;;2.85;2.65;;;;;;;3.72;74.64;99880.72;5017186;28;20030;-90
2022/03/31 04:03:23;;;;;;;2.88;2.67;;;;;;;3.71;74.12;99890.63;5016520;28;20386;-90
2022/03/31 04:05:50;;;;;;;2.60;2.40;;;;;;;3.61;74.92;99887.44;5017550;28;20033;-89
2022/03/31 04:08:16;;;;;;;2.58;2.38;;;;;;;3.53;74.07;99890.25;4999763;28;20497;-90
2022/03/31 04:10:41;;;;;;;2.90;2.58;;;;;;;3.51;75.59;99890.44;5017123;28;20045;-90
2022/03/31 04:13:07;;;;;;;3.00;2.70;;;;;;;3.48;77.09;99894.34;5016095;28;20038;-90
2022/03/31 04:15:36;;;;;;;2.95;2.75;;;;;;;3.41;76.48;99890.78;5015505;28;20026;-89
2022/03/31 04:18:02;;;;;;;2.90;2.70;;;;;;;3.46;76.45;99882.97;5015931;28;20040;-89
2022/03/31 04:21:01;;;;;;;3.53;3.20;;;;;;;3.39;75.69;99890.13;5000611;28;20053;-89
2022/03/31 04:23:26;;;;;;;3.22;2.90;;;;;;;3.27;78.63;99892.50;5016069;28;20121;-89
2022/03/31 04:25:54;;;;;;;3.15;2.90;;;;;;;3.30;78.01;99893.97;5015557;28;20125;-89
2022/03/31 04:28:23;;;;;;;2.95;2.75;;;;;;;3.21;79.24;99892.44;5016770;28;20038;-89
2022/03/31 04:30:51;;;;;;;2.58;2.38;;;;;;;3.22;76.97;99894.94;4999598;28;20073;-89
2022/03/31 04:33:19;;;;;;;2.63;2.42;;;;;;;3.18;78.73;99898.19;5015409;28;20084;-89
2022/03/31 04:35:45;;;;;;;3.03;2.35;;;;;;;3.16;78.09;99891.16;4999789;28;20034;-89
2022/03/31 04:38:10;;;;;;;2.75;2.42;;;;;;;3.09;79.49;99906.34;5016763;28;20088;-89
2022/03/31 04:40:36;;;;;;;2.47;2.30;;;;;;;3.06;78.68;99901.34;4999297;28;20117;-89
2022/03/31 04:43:04;;;;;;;3.03;2.30;;;;;;;2.92;79.45;99895.03;5015278;28;20030;-88
2022/03/31 04:45:32;;;;;;;2.20;2.10;;;;;;;2.85;79.31;99891.44;4998859;28;20040;-89
2022/03/31 04:48:07;;;;;;;2.00;1.90;;;;;;;2.80;79.51;99897.38;4998473;28;20045;-89
2022/03/31 04:50:34;;;;;;;2.40;2.20;;;;;;;2.84;79.51;99908.53;5015363;28;20030;-89
2022/03/31 04:53:03;;;;;;;2.00;1.90;;;;;;;2.88;79.04;99903.59;4997984;28;20034;-88
2022/03/31 04:55:32;;;;;;;2.13;2.03;;;;;;;2.84;79.61;99903.16;5015204;28;20378;-88
2022/03/31 04:57:58;;;;;;;2.33;2.20;;;;;;;2.74;79.83;99905.31;5014790;28;20042;-89
2022/03/31 05:00:31;;;;;;;2.50;2.30;;;;;;;2.70;80.82;99906.69;5014895;28;20041;-89
2022/03/31 05:02:59;;;;;;;2.30;2.20;;;;;;;2.76;80.74;99911.28;5015017;28;20135;-94
2022/03/31 05:05:45;;;;;;;2.25;2.10;;;;;;;2.62;81.64;99911.13;5015476;28;20487;-93
2022/03/31 05:08:13;;;;;;;2.20;2.10;;;;;;;2.66;81.51;99908.94;5015905;28;20220;-93
2022/03/31 05:10:39;;;;;;;2.20;2.10;;;;;;;2.67;81.50;99907.88;5016087;28;20061;-95
2022/03/31 05:13:07;;;;;;;2.40;2.20;;;;;;;2.53;81.99;99911.44;5015050;28;20433;-93
2022/03/31 05:15:33;;;;;;;2.20;2.10;;;;;;;2.60;81.74;99907.81;5016295;28;20041;-93
2022/03/31 05:18:04;;;;;;;2.40;2.20;;;;;;;2.58;81.72;99901.84;5015028;28;20405;-89
2022/03/31 05:20:30;;;;;;;2.75;2.55;;;;;;;2.64;81.40;99908.25;4998797;28;20065;-89
2022/03/31 05:22:55;;;;;;;2.20;2.10;;;;;;;2.48;81.52;99903.09;4998728;28;20038;-88
2022/03/31 05:25:21;;;;;;;2.33;2.22;;;;;;;2.44;82.25;99905.34;5014316;28;20026;-88
2022/03/31 05:27:50;;;;;;;2.40;2.20;;;;;;;2.28;82.93;99909.84;4997788;28;20053;-89
2022/03/31 05:30:21;;;;;;;2.30;2.13;;;;;;;2.32;82.37;99912.16;5015414;28;20025;-87
2022/03/31 05:32:47;;;;;;;2.30;2.10;;;;;;;2.31;82.11;99908.66;5014254;28;20501;-86
2022/03/31 05:35:13;;;;;;;2.35;2.10;;;;;;;2.30;82.39;99914.19;5018804;28;20044;-86
2022/03/31 05:37:40;;;;;;;2.42;2.22;;;;;;;2.24;82.39;99913.09;5030162;28;20018;-85
2022/03/31 05:40:07;;;;;;;2.30;2.03;;;;;;;2.18;82.74;99914.66;5013759;28;20065;-86
2022/03/31 05:42:34;;;;;;;2.20;2.03;;;;;;;2.17;82.39;99915.69;5018899;28;20033;-83
2022/03/31 05:45:00;;;;;;;2.30;2.10;;;;;;;2.23;83.09;99909.59;5033249;28;20400;-86
2022/03/31 05:47:26;;;;;;;2.33;2.17;;;;;;;2.25;82.84;99922.78;5033446;28;20119;-85
2022/03/31 05:49:52;;;;;;;2.17;2.00;;;;;;;2.18;82.56;99921.84;5034630;28;20236;-86
2022/03/31 05:52:18;;;;;;;2.13;2.03;;;;;;;2.09;82.65;99921.09;5033469;28;20052;-88
2022/03/31 05:54:44;;;;;;;2.17;1.98;;;;;;;2.02;82.76;99918.34;5033389;28;20413;-88
2022/03/31 05:57:19;;;;;;;2.00;1.90;;;;;;;1.90;83.41;99909.91;5033219;28;20112;-87
2022/03/31 05:59:44;;;;;;;1.92;1.83;;;;;;;1.83;83.55;99913.47;5033434;28;20133;-87
2022/03/31 06:02:11;;;;;;;1.83;1.60;;;;;;;1.78;84.29;99910.53;5034496;28;20537;-89
2022/03/31 06:04:37;;;;;;;1.85;1.75;;;;;;;1.79;83.51;99906.81;5034106;28;20124;-90
2022/03/31 06:07:04;;;;;;;2.08;1.98;;;;;;;1.81;83.37;99904.81;5033493;28;20029;-90
2022/03/31 06:09:29;;;;;;;2.40;2.20;;;;;;;1.86;84.72;99911.28;5016965;28;20029;-89
2022/03/31 06:11:55;;;;;;;1.70;1.60;;;;;;;1.88;83.68;99911.94;5033248;28;20050;-90
2022/03/31 06:14:21;;;;;;;2.00;1.90;;;;;;;1.87;83.76;99907.59;5034134;28;20482;-91
2022/03/31 06:16:49;;;;;;;1.88;1.77;;;;;;;1.89;83.98;99908.25;5017114;28;20029;-91
2022/03/31 06:19:15;;;;;;;1.85;1.75;;;;;;;1.91;84.54;99908.88;5034491;28;20033;-90
2022/03/31 06:21:44;;;;;;;1.77;1.67;;;;;;;2.00;83.34;99911.50;5034540;28;20040;-90
2022/03/31 06:24:09;;;;;;;1.80;1.70;;;;;;;2.03;83.69;99914.63;5034024;28;20026;-89
2022/03/31 06:26:35;;;;;;;2.13;1.92;;;;;;;2.02;84.24;99914.81;5033052;28;20079;-90
2022/03/31 06:29:01;;;;;;;2.30;1.52;;;;;;;2.07;83.50;99923.97;5033150;28;20029;-89
2022/03/31 06:31:27;;;;;;;2.70;2.00;;;;;;;2.09;84.51;99929.94;5033146;28;20480;-90
2022/03/31 06:33:54;;;;;;;2.30;2.10;;;;;;;2.10;84.01;99918.25;5016586;28;20041;-89
2022/03/31 06:36:22;;;;;;;2.30;2.10;;;;;;;2.09;83.71;99918.44;5032621;28;20029;-88
2022/03/31 06:38:47;;;;;;;2.80;2.17;;;;;;;2.09;84.05;99918.44;5015949;28;20045;-89
2022/03/31 06:41:17;;;;;;;2.00;1.90;;;;;;;2.08;83.62;99932.81;5032249;28;20541;-89
2022/03/31 06:43:50;;;;;;;2.20;2.10;;;;;;;2.06;84.75;99926.81;5033607;28;20166;-88
2022/03/31 06:46:25;;;;;;;2.72;2.53;;;;;;;2.02;84.23;99920.16;5032529;28;20017;-88
2022/03/31 06:48:50;;;;;;;2.60;2.40;;;;;;;2.05;84.12;99926.00;5000061;28;20037;-89
2022/03/31 06:51:19;;;;;;;2.50;2.30;;;;;;;2.10;84.37;99923.59;5032403;28;20036;-88
2022/03/31 06:53:54;;;;;;;2.47;2.30;;;;;;;2.19;83.87;99923.53;5032432;28;20044;-88
2022/03/31 06:56:20;;;;;;;2.50;2.33;;;;;;;2.15;86.18;99931.06;5017239;28;20402;-89
2022/03/31 06:58:48;;;;;;;2.70;2.50;;;;;;;2.20;84.77;99934.03;5032443;28;20035;-89
2022/03/31 07:01:16;;;;;;;2.20;2.10;;;;;;;2.26;84.12;99927.13;5016070;28;20037;-88
2022/03/31 07:03:41;;;;;;;2.47;2.28;;;;;;;2.27;84.41;99929.63;5015856;28;20040;-89
2022/03/31 07:06:08;;;;;;;2.70;2.50;;;;;;;2.32;83.87;99918.34;5015923;28;20037;-88
2022/03/31 07:08:34;;;;;;;2.70;2.50;;;;;;;2.36;83.85;99919.66;5032710;28;20037;-88
2022/03/31 07:11:01;;;;;;;3.00;2.80;;;;;;;2.41;83.67;99924.47;5033234;28;20128;-89
2022/03/31 07:13:29;;;;;;;2.67;2.47;;;;;;;2.40;84.28;99912.91;5032318;28;20140;-88
2022/03/31 07:15:57;;;;;;;2.60;2.40;;;;;;;2.42;84.02;99916.25;5024857;28;20393;-89
2022/03/31 07:18:22;;;;;;;2.40;2.20;;;;;;;2.48;83.18;99925.38;4996584;28;20046;-88
2022/03/31 07:20:49;;;;;;;4.03;3.60;;;;;;;2.48;83.75;99916.50;5012498;28;20022;-88
2022/03/31 07:23:14;;;;;;;3.88;3.40;;;;;;;2.51;83.06;99916.13;5012860;28;20038;-88
2022/03/31 07:25:42;;;;;;;3.90;3.50;;;;;;;2.51;83.65;99919.66;5012436;28;20029;-88
2022/03/31 07:28:10;;;;;;;3.10;2.90;;;;;;;2.42;84.52;99913.56;5013681;28;20037;-88
2022/03/31 07:30:35;;;;;;;2.90;2.70;;;;;;;2.46;84.71;99919.38;5012359;28;20088;-88
2022/03/31 07:33:09;;;;;;;2.55;2.35;;;;;;;2.52;83.20;99926.66;5012122;28;20037;-89
2022/03/31 07:35:39;;;;;;;2.72;2.50;;;;;;;2.57;83.49;99926.09;5000763;28;20466;-89
2022/03/31 07:38:13;;;;;;;2.60;2.40;;;;;;;2.60;82.90;99918.53;5029838;28;20029;-89
2022/03/31 07:40:40;;;;;;;3.30;3.00;;;;;;;2.57;83.52;99926.94;5032579;28;20030;-89
2022/03/31 07:43:06;;;;;;;2.70;2.50;;;;;;;2.61;83.28;99922.88;5032235;28;20033;-89
2022/03/31 07:45:38;;;;;;;3.03;2.80;;;;;;;2.60;82.78;99926.56;5031876;28;20025;-89
2022/03/31 07:48:05;;;;;;;2.72;2.53;;;;;;;2.54;83.91;99921.97;5029340;28;20489;-88
2022/03/31 07:50:31;;;;;;;2.55;2.42;;;;;;;2.58;84.54;99925.94;5015216;28;20075;-88
2022/03/31 07:52:57;;;;;;;2.83;2.63;;;;;;;2.66;83.68;99930.34;5013443;28;20545;-88
2022/03/31 07:55:23;;;;;;;2.60;2.40;;;;;;;2.65;83.85;99922.50;5013291;28;20029;-89
2022/03/31 07:57:49;;;;;;;2.70;2.50;;;;;;;2.61;84.70;99922.03;5012395;28;20026;-88
2022/03/31 08:00:18;;;;;;;2.40;2.20;;;;;;;2.69;84.14;99924.63;5012049;28;20036;-88
2022/03/31 08:02:47;;;;;;;2.58;2.38;;;;;;;2.67;85.31;99920.47;5016500;28;20506;-89
2022/03/31 08:05:16;;;;;;;2.70;2.50;;;;;;;2.72;84.20;99921.56;5017112;28;20137;-89
2022/03/31 08:07:41;;;;;;;2.22;2.10;;;;;;;2.78;83.81;99920.81;5019390;28;20489;-88
2022/03/31 08:10:10;;;;;;;2.53;2.33;;;;;;;2.80;85.00;99923.31;5019439;28;20026;-88
2022/03/31 08:12:36;;;;;;;2.78;2.55;;;;;;;2.92;83.51;99907.56;5021146;28;20050;-88
2022/03/31 08:15:05;;;;;;;3.15;2.70;;;;;;;2.81;84.55;99915.06;5022558;28;20033;-88
2022/03/31 08:17:31;;;;;;;2.30;2.20;;;;;;;2.83;84.77;99906.84;5034418;28;20092;-87
2022/03/31 08:19:57;;;;;;;2.30;2.10;;;;;;;2.96;84.49;99912.38;5013291;28;20038;-88
2022/03/31 08:22:23;;;;;;;2.40;2.15;;;;;;;3.04;84.55;99906.09;5018242;28;20065;-87
2022/03/31 08:24:53;;;;;;;2.45;2.25;;;;;;;3.15;83.81;99905.56;5018043;28;20029;-88
2022/03/31 08:27:19;;;;;;;2.20;2.10;;;;;;;3.19;84.55;99903.34;5031720;28;20029;-88
2022/03/31 08:29:45;;;;;;;3.67;2.10;;;;;;;3.31;83.61;99906.38;5034264;28;20025;-88
2022/03/31 08:32:12;;;;;;;3.45;2.35;;;;;;;3.38;83.07;99912.63;5032839;28;20029;-87
2022/03/31 08:34:37;;;;;;;2.17;2.03;;;;;;;3.44;83.24;99903.81;5008889;28;20034;-87
2022/03/31 08:37:03;;;;;;;2.50;2.30;;;;;;;3.51;82.45;99902.03;5006270;28;20040;-87
2022/03/31 08:39:29;;;;;;;2.55;2.35;;;;;;;3.45;83.63;99905.44;5025656;28;20068;-87
2022/03/31 08:41:54;;;;;;;2.50;2.30;;;;;;;3.52;83.86;99910.88;5020818;28;20462;-87
2022/03/31 08:44:22;;;;;;;2.42;2.22;;;;;;;3.59;83.12;99917.16;5023528;28;20038;-88
2022/03/31 08:46:49;;;;;;;2.20;2.10;;;;;;;3.66;83.15;99914.50;5009093;28;20036;-88
2022/03/31 08:49:15;;;;;;;2.30;2.20;;;;;;;3.68;82.38;99921.34;5032322;28;20051;-88
2022/03/31 08:51:45;;;;;;;2.60;2.40;;;;;;;3.73;81.36;99922.63;5025243;28;20030;-88
2022/03/31 08:54:11;;;;;;;2.35;2.22;;;;;;;3.68;82.32;99924.03;5014534;28;20099;-88
2022/03/31 08:56:37;;;;;;;2.20;2.10;;;;;;;3.81;81.85;99914.41;5019894;28;20114;-86
2022/03/31 08:59:03;;;;;;;2.08;1.98;;;;;;;3.97;81.80;99913.31;5022926;28;20514;-86
2022/03/31 09:01:30;;;;;;;2.20;2.10;;;;;;;4.17;81.62;99918.84;5021712;28;20026;-86
2022/03/31 09:03:58;;;;;;;2.67;2.47;;;;;;;4.34;80.68;99919.34;5012344;28;20065;-86
2022/03/31 09:06:28;;;;;;;2.42;2.22;;;;;;;4.45;80.89;99928.72;5023945;28;20105;-86
2022/03/31 09:09:12;;;;;;;2.45;2.25;;;;;;;4.59;79.86;99919.69;5048111;28;20030;-86
2022/03/31 09:11:38;;;;;;;2.50;2.22;;;;;;;4.72;79.17;99916.25;5024819;28;20042;-85
2022/03/31 09:14:08;;;;;;;2.10;2.00;;;;;;;4.77;79.92;99916.50;5021572;28;20040;-86
2022/03/31 09:16:36;;;;;;;3.65;3.28;;;;;;;4.86;78.15;99922.53;4998061;28;20042;-85
2022/03/31 09:19:05;;;;;;;3.20;2.78;;;;;;;4.88;78.46;99921.28;5024049;28;20029;-86
2022/03/31 09:21:35;;;;;;;3.63;2.72;;;;;;;4.91;78.21;99920.88;5034168;28;20120;-86
2022/03/31 09:24:02;;;;;;;2.30;2.20;;;;;;;4.84;78.77;99921.88;5034096;28;20033;-86
2022/03/31 09:26:31;;;;;;;2.85;2.50;;;;;;;4.80;77.98;99926.84;5033989;28;20470;-85
2022/03/31 09:29:13;;;;;;;2.60;2.40;;;;;;;4.78;78.31;99926.19;5027253;28;20385;-85
2022/03/31 09:31:39;;;;;;;2.33;2.13;;;;;;;4.78;78.40;99930.75;5013941;28;20175;-86
2022/03/31 09:34:04;;;;;;;2.60;2.40;;;;;;;4.72;78.37;99925.16;5015795;28;20057;-86
2022/03/31 09:36:30;;;;;;;2.80;2.60;;;;;;;4.58;78.72;99928.78;5014270;28;20080;-86
2022/03/31 09:39:03;;;;;;;3.28;3.00;;;;;;;4.53;78.38;99933.91;5013699;28;20021;-86
2022/03/31 09:41:36;;;;;;;2.75;2.55;;;;;;;4.51;78.55;99927.94;5015070;28;20057;-85
2022/03/31 09:44:07;;;;;;;3.17;2.88;;;;;;;4.54;77.50;99933.72;5019509;28;20108;-86
2022/03/31 09:46:36;;;;;;;3.00;2.80;;;;;;;4.53;78.04;99929.41;5014709;28;20116;-85
2022/03/31 09:49:14;;;;;;;3.00;2.80;;;;;;;4.55;78.02;99921.97;5013614;28;20044;-85
2022/03/31 09:51:41;;;;;;;3.17;2.80;;;;;;;4.59;77.70;99926.94;5013589;28;20045;-85
2022/03/31 09:54:07;;;;;;;3.00;2.80;;;;;;;4.46;77.98;99935.75;5013636;28;20087;-86
2022/03/31 09:56:35;;;;;;;2.80;2.60;;;;;;;4.40;77.94;99932.00;5013256;28;20037;-86
2022/03/31 09:59:12;;;;;;;2.70;2.50;;;;;;;4.37;78.39;99925.16;5024662;28;20053;-85
2022/03/31 10:01:39;;;;;;;2.20;2.10;;;;;;;4.39;78.34;99924.97;5013474;28;20033;-85
2022/03/31 10:04:09;;;;;;;3.05;2.40;;;;;;;4.41;78.67;99927.47;5013092;28;20022;-85
2022/03/31 10:06:37;;;;;;;2.63;2.42;;;;;;;4.49;78.41;99925.44;5013222;28;20034;-85
2022/03/31 10:09:08;;;;;;;2.67;2.47;;;;;;;4.60;77.86;99913.28;4996789;28;20030;-85
2022/03/31 10:11:38;;;;;;;2.60;2.40;;;;;;;4.61;77.65;99908.78;5012935;28;20125;-85
2022/03/31 10:14:30;;;;;;;2.53;2.33;;;;;;;4.63;77.47;99918.28;5012536;28;20124;-86
2022/03/31 10:17:01;;;;;;;2.70;2.50;;;;;;;4.59;77.39;99910.81;5014302;28;20374;-85
2022/03/31 10:19:28;;;;;;;2.43;2.23;;;;;;;4.70;78.37;99916.44;5012794;28;20124;-85
2022/03/31 10:22:10;;;;;;;2.53;2.33;;;;;;;4.81;78.00;99919.59;5018400;28;20033;-86
2022/03/31 10:24:44;;;;;;;2.92;2.72;;;;;;;4.92;76.77;99910.97;5013861;28;20080;-85
2022/03/31 10:27:25;;;;;;;2.58;2.42;;;;;;;4.96;76.14;99922.97;5032424;28;20060;-85
2022/03/31 10:29:50;;;;;;;2.95;2.75;;;;;;;4.98;76.99;99923.59;5017101;28;20462;-85
2022/03/31 10:32:34;;;;;;;3.00;2.80;;;;;;;4.98;76.44;99918.22;5030148;28;20091;-85
2022/03/31 10:35:02;;;;;;;2.60;2.40;;;;;;;5.01;75.79;99914.31;5026839;28;20087;-86
2022/03/31 10:37:35;;;;;;;2.60;2.40;;;;;;;5.00;77.21;99920.69;5031017;28;20060;-85
2022/03/31 10:40:09;;;;;;;2.65;2.45;;;;;;;5.12;76.49;99912.88;5032466;28;20029;-85
2022/03/31 10:42:39;;;;;;;2.60;2.40;;;;;;;5.13;77.16;99914.53;5032347;28;20156;-85
2022/03/31 10:45:32;;;;;;;2.60;2.40;;;;;;;5.38;75.57;99912.94;5031934;28;20080;-86
2022/03/31 10:47:58;;;;;;;2.70;2.50;;;;;;;5.48;75.17;99911.69;5022528;28;20022;-85
2022/03/31 10:50:31;;;;;;;2.35;2.20;;;;;;;5.54;76.04;99908.22;5020305;28;20029;-85
2022/03/31 10:53:01;;;;;;;2.50;2.30;;;;;;;5.60;74.71;99907.38;5025597;28;20064;-86
2022/03/31 10:55:47;;;;;;;2.40;2.30;;;;;;;5.64;73.96;99903.25;5012546;28;20029;-86
2022/03/31 10:58:28;;;;;;;2.30;2.20;;;;;;;5.54;74.12;99905.53;5014882;28;20425;-86
2022/03/31 11:00:55;;;;;;;2.58;2.40;;;;;;;5.56;74.30;99903.44;5012766;28;20034;-85
2022/03/31 11:03:23;;;;;;;2.72;2.53;;;;;;;5.49;74.15;99908.00;5019302;28;20091;-85
2022/03/31 11:05:49;;;;;;;2.78;2.40;;;;;;;5.37;75.31;99907.75;5012357;28;20034;-85
2022/03/31 11:08:18;;;;;;;2.38;2.17;;;;;;;5.34;74.73;99905.50;4996013;28;20061;-86
2022/03/31 11:10:47;;;;;;;2.28;2.17;;;;;;;5.38;74.10;99896.81;5012499;28;20064;-85
2022/03/31 11:13:16;;;;;;;3.25;2.60;;;;;;;5.23;73.82;99896.97;5012158;28;20033;-85
2022/03/31 11:15:46;;;;;;;3.25;2.60;;;;;;;5.22;74.58;99910.63;5019328;28;20029;-85
2022/03/31 11:18:12;;;;;;;2.67;2.55;;;;;;;5.19;74.81;99908.34;5024099;28;20083;-85
2022/03/31 11:20:37;;;;;;;2.55;2.42;;;;;;;5.32;75.48;99894.94;5012355;28;20030;-86
2022/03/31 11:23:08;;;;;;;2.38;2.28;;;;;;;5.61;75.20;99893.72;5011773;28;20025;-86
2022/03/31 11:25:35;;;;;;;2.80;2.60;;;;;;;5.75;73.88;99888.34;5012175;28;20029;-85
2022/03/31 11:28:12;;;;;;;2.72;2.53;;;;;;;5.85;74.09;99890.63;5015841;28;20091;-85
2022/03/31 11:30:43;;;;;;;3.30;3.00;;;;;;;6.01;74.38;99878.63;5018635;28;20532;-85
2022/03/31 11:33:10;;;;;;;2.72;2.53;;;;;;;6.25;74.57;99885.22;5002866;28;20034;-85
2022/03/31 11:35:36;;;;;;;2.60;2.40;;;;;;;6.43;72.67;99871.91;5021746;28;20329;-84
2022/03/31 11:38:05;;;;;;;2.38;2.28;;;;;;;6.42;72.29;99883.72;4999981;28;20034;-85
2022/03/31 11:40:34;;;;;;;2.40;2.30;;;;;;;6.34;72.67;99873.19;5011791;28;20029;-84
2022/03/31 11:43:03;;;;;;;2.50;2.30;;;;;;;6.35;72.22;99885.63;5024980;28;20037;-84
2022/03/31 11:45:36;;;;;;;2.30;2.20;;;;;;;6.30;72.00;99870.09;5031505;28;20405;-85
2022/03/31 11:48:07;;;;;;;2.40;2.30;;;;;;;6.25;73.47;99874.44;5031672;28;20033;-84
2022/03/31 11:50:36;;;;;;;2.30;2.10;;;;;;;6.40;72.09;99871.50;5028619;28;20026;-84
2022/03/31 11:53:02;;;;;;;2.45;2.30;;;;;;;6.55;71.61;99876.63;5011870;28;20022;-84